Hightown, United Kingdom
Current Conditions -  °F | °C
As of 8:50 PM on Tuesday 21 Oct 2014 (Local Time) from EGGP Reporting Station
Rain Showers Rain Showers  
Wind Chill: 41°   Ceiling: Unl
Heat Index: 48°   Visibility: 6mi
Dew Point: 39°   Wind: 20mph
Humidity: 71%   Direction: 310°NW
Pressure: 30.03"   Gusts: NA
Location:  53.52°N, 3.05°W
Report Text: EGGP 211950Z 31017KT 9000 -SHRA FEW021 SCT029 09/04 Q1017
Loading
Personal Weather Stations






























Interactive Weather Map
Tropical Storm Tracking
New forecast layout! Learn more

10-Day Weather Forecast

Advertisements
Track Severe Weather on mobile